sensor_id;sensor_type;location;lat;lon;timestamp;pressure;altitude;pressure_sealevel;temperature;humidity
4745;BME280;2386;42.138;24.746;2023-05-23T00:00:03;99319.66;;;17.41;100.00
4745;BME280;2386;42.138;24.746;2023-05-23T00:02:39;99319.97;;;17.35;100.00
4745;BME280;2386;42.138;24.746;2023-05-23T00:05:05;99313.16;;;17.27;100.00
4745;BME280;2386;42.138;24.746;2023-05-23T00:07:31;99322.28;;;17.13;100.00
4745;BME280;2386;42.138;24.746;2023-05-23T00:09:56;99328.28;;;17.15;100.00
4745;BME280;2386;42.138;24.746;2023-05-23T00:12:22;99319.59;;;17.02;100.00
4745;BME280;2386;42.138;24.746;2023-05-23T00:14:47;99321.25;;;17.03;100.00
4745;BME280;2386;42.138;24.746;2023-05-23T00:17:13;99318.03;;;16.81;100.00
4745;BME280;2386;42.138;24.746;2023-05-23T00:19:38;99316.41;;;16.75;100.00
4745;BME280;2386;42.138;24.746;2023-05-23T00:22:04;99321.63;;;16.66;100.00
4745;BME280;2386;42.138;24.746;2023-05-23T00:24:29;99319.72;;;16.67;100.00
4745;BME280;2386;42.138;24.746;2023-05-23T00:26:55;99308.75;;;16.62;100.00
4745;BME280;2386;42.138;24.746;2023-05-23T00:29:20;99316.97;;;16.57;100.00
4745;BME280;2386;42.138;24.746;2023-05-23T00:31:47;99306.28;;;16.55;100.00
4745;BME280;2386;42.138;24.746;2023-05-23T00:34:14;99309.84;;;16.61;100.00
4745;BME280;2386;42.138;24.746;2023-05-23T00:36:39;99312.03;;;16.69;100.00
4745;BME280;2386;42.138;24.746;2023-05-23T00:39:06;99308.22;;;16.50;100.00
4745;BME280;2386;42.138;24.746;2023-05-23T00:41:32;99308.78;;;16.47;100.00
4745;BME280;2386;42.138;24.746;2023-05-23T00:43:58;99300.06;;;16.24;100.00
4745;BME280;2386;42.138;24.746;2023-05-23T00:46:25;99304.44;;;16.30;100.00
4745;BME280;2386;42.138;24.746;2023-05-23T00:48:51;99313.75;;;16.24;100.00
4745;BME280;2386;42.138;24.746;2023-05-23T00:51:17;99306.94;;;16.12;100.00
4745;BME280;2386;42.138;24.746;2023-05-23T00:53:42;99307.19;;;16.15;100.00
4745;BME280;2386;42.138;24.746;2023-05-23T00:56:08;99310.75;;;16.31;100.00
4745;BME280;2386;42.138;24.746;2023-05-23T00:58:34;99303.63;;;16.25;100.00
4745;BME280;2386;42.138;24.746;2023-05-23T01:00:59;99300.91;;;16.25;100.00
4745;BME280;2386;42.138;24.746;2023-05-23T01:03:25;99299.53;;;16.17;100.00
4745;BME280;2386;42.138;24.746;2023-05-23T01:05:53;99299.00;;;16.10;100.00
4745;BME280;2386;42.138;24.746;2023-05-23T01:08:20;99309.94;;;16.05;100.00
4745;BME280;2386;42.138;24.746;2023-05-23T01:10:46;99295.16;;;15.91;100.00
4745;BME280;2386;42.138;24.746;2023-05-23T01:16:08;99288.59;;;15.92;100.00
4745;BME280;2386;42.138;24.746;2023-05-23T01:21:17;99294.63;;;15.94;100.00
4745;BME280;2386;42.138;24.746;2023-05-23T01:28:50;99294.63;;;15.89;100.00
4745;BME280;2386;42.138;24.746;2023-05-23T01:31:16;99292.44;;;15.81;100.00
4745;BME280;2386;42.138;24.746;2023-05-23T01:33:42;99294.06;;;15.76;100.00
4745;BME280;2386;42.138;24.746;2023-05-23T01:36:12;99302.28;;;15.82;100.00
4745;BME280;2386;42.138;24.746;2023-05-23T01:38:38;99281.75;;;15.69;100.00
4745;BME280;2386;42.138;24.746;2023-05-23T01:41:03;99279.84;;;15.59;100.00
4745;BME280;2386;42.138;24.746;2023-05-23T01:43:29;99291.31;;;15.61;100.00
4745;BME280;2386;42.138;24.746;2023-05-23T01:45:55;99276.25;;;15.49;100.00
4745;BME280;2386;42.138;24.746;2023-05-23T01:48:22;99282.28;;;15.56;100.00
4745;BME280;2386;42.138;24.746;2023-05-23T01:50:49;99283.13;;;15.71;100.00
4745;BME280;2386;42.138;24.746;2023-05-23T01:53:18;99291.31;;;15.71;100.00
4745;BME280;2386;42.138;24.746;2023-05-23T01:55:44;99292.97;;;15.77;100.00
4745;BME280;2386;42.138;24.746;2023-05-23T01:58:09;99280.41;;;15.76;100.00
4745;BME280;2386;42.138;24.746;2023-05-23T02:00:35;99281.75;;;15.79;100.00
4745;BME280;2386;42.138;24.746;2023-05-23T02:03:01;99287.50;;;15.72;100.00
4745;BME280;2386;42.138;24.746;2023-05-23T02:05:27;99288.06;;;15.80;100.00
4745;BME280;2386;42.138;24.746;2023-05-23T02:07:54;99281.75;;;15.69;100.00
4745;BME280;2386;42.138;24.746;2023-05-23T02:10:20;99275.19;;;15.55;100.00
4745;BME280;2386;42.138;24.746;2023-05-23T02:12:45;99286.13;;;15.65;100.00
4745;BME280;2386;42.138;24.746;2023-05-23T02:15:10;99282.59;;;15.59;100.00
4745;BME280;2386;42.138;24.746;2023-05-23T02:17:36;99264.56;;;15.58;100.00
4745;BME280;2386;42.138;24.746;2023-05-23T02:20:03;99280.38;;;15.66;100.00
4745;BME280;2386;42.138;24.746;2023-05-23T02:22:30;99279.84;;;15.59;100.00
4745;BME280;2386;42.138;24.746;2023-05-23T02:24:55;99280.38;;;15.51;100.00
4745;BME280;2386;42.138;24.746;2023-05-23T02:27:21;99283.09;;;15.56;100.00
4745;BME280;2386;42.138;24.746;2023-05-23T02:29:46;99278.50;;;15.57;100.00
4745;BME280;2386;42.138;24.746;2023-05-23T02:32:12;99279.31;;;15.57;100.00
4745;BME280;2386;42.138;24.746;2023-05-23T02:34:37;99286.41;;;15.58;100.00
4745;BME280;2386;42.138;24.746;2023-05-23T02:37:03;99283.41;;;15.60;100.00
4745;BME280;2386;42.138;24.746;2023-05-23T02:39:28;99281.44;;;15.45;100.00
4745;BME280;2386;42.138;24.746;2023-05-23T02:41:53;99279.25;;;15.37;100.00
4745;BME280;2386;42.138;24.746;2023-05-23T02:44:19;99284.16;;;15.30;100.00
4745;BME280;2386;42.138;24.746;2023-05-23T02:46:45;99278.13;;;15.28;100.00
4745;BME280;2386;42.138;24.746;2023-05-23T02:49:10;99287.44;;;15.32;100.00
4745;BME280;2386;42.138;24.746;2023-05-23T02:51:36;99285.53;;;15.37;100.00
4745;BME280;2386;42.138;24.746;2023-05-23T02:54:01;99282.53;;;15.39;100.00
4745;BME280;2386;42.138;24.746;2023-05-23T02:56:27;99280.91;;;15.43;100.00
4745;BME280;2386;42.138;24.746;2023-05-23T02:58:52;99274.31;;;15.34;100.00
4745;BME280;2386;42.138;24.746;2023-05-23T03:01:18;99281.16;;;15.41;100.00
4745;BME280;2386;42.138;24.746;2023-05-23T03:03:44;99273.53;;;15.49;100.00
4745;BME280;2386;42.138;24.746;2023-05-23T03:06:09;99267.78;;;15.50;100.00
4745;BME280;2386;42.138;24.746;2023-05-23T03:08:39;99274.63;;;15.63;100.00
4745;BME280;2386;42.138;24.746;2023-05-23T03:11:04;99276.81;;;15.66;100.00
4745;BME280;2386;42.138;24.746;2023-05-23T03:13:30;99273.28;;;15.70;100.00
4745;BME280;2386;42.138;24.746;2023-05-23T03:15:55;99274.91;;;15.71;100.00
4745;BME280;2386;42.138;24.746;2023-05-23T03:18:20;99276.00;;;15.75;100.00
4745;BME280;2386;42.138;24.746;2023-05-23T03:20:46;99279.03;;;15.84;100.00
4745;BME280;2386;42.138;24.746;2023-05-23T03:23:11;99271.63;;;15.80;100.00
4745;BME280;2386;42.138;24.746;2023-05-23T03:25:37;99272.19;;;15.71;100.00
4745;BME280;2386;42.138;24.746;2023-05-23T03:28:02;99277.94;;;15.70;100.00
4745;BME280;2386;42.138;24.746;2023-05-23T03:30:27;99279.56;;;15.61;100.00
4745;BME280;2386;42.138;24.746;2023-05-23T03:32:53;99282.03;;;15.67;100.00
4745;BME280;2386;42.138;24.746;2023-05-23T03:35:18;99282.56;;;15.64;100.00
4745;BME280;2386;42.138;24.746;2023-05-23T03:37:44;99278.19;;;15.53;100.00
4745;BME280;2386;42.138;24.746;2023-05-23T03:40:09;99276.81;;;15.56;100.00
4745;BME280;2386;42.138;24.746;2023-05-23T03:42:37;99283.66;;;15.53;100.00
4745;BME280;2386;42.138;24.746;2023-05-23T03:45:03;99279.00;;;15.54;100.00
4745;BME280;2386;42.138;24.746;2023-05-23T03:47:29;99280.69;;;15.60;100.00
4745;BME280;2386;42.138;24.746;2023-05-23T03:49:54;99273.81;;;15.52;100.00
4745;BME280;2386;42.138;24.746;2023-05-23T03:52:20;99269.41;;;15.46;100.00
4745;BME280;2386;42.138;24.746;2023-05-23T03:54:45;99279.81;;;15.44;100.00
4745;BME280;2386;42.138;24.746;2023-05-23T03:57:10;99279.81;;;15.44;100.00
4745;BME280;2386;42.138;24.746;2023-05-23T03:59:36;99271.06;;;15.42;100.00
4745;BME280;2386;42.138;24.746;2023-05-23T04:02:01;99281.47;;;15.55;100.00
4745;BME280;2386;42.138;24.746;2023-05-23T04:04:28;99281.47;;;15.60;100.00
4745;BME280;2386;42.138;24.746;2023-05-23T04:06:53;99287.22;;;15.74;100.00
4745;BME280;2386;42.138;24.746;2023-05-23T04:09:19;99284.22;;;15.81;100.00
4745;BME280;2386;42.138;24.746;2023-05-23T04:11:44;99293.81;;;15.98;100.00
4745;BME280;2386;42.138;24.746;2023-05-23T04:14:11;99291.88;;;15.99;100.00
4745;BME280;2386;42.138;24.746;2023-05-23T04:16:37;99286.41;;;16.04;100.00
4745;BME280;2386;42.138;24.746;2023-05-23T04:19:06;99294.88;;;16.13;100.00
4745;BME280;2386;42.138;24.746;2023-05-23T04:21:32;99285.84;;;16.12;100.00
4745;BME280;2386;42.138;24.746;2023-05-23T04:23:57;99288.03;;;16.15;100.00
4745;BME280;2386;42.138;24.746;2023-05-23T04:26:23;99287.47;;;16.28;100.00
4745;BME280;2386;42.138;24.746;2023-05-23T04:28:49;99298.97;;;16.30;100.00
4745;BME280;2386;42.138;24.746;2023-05-23T04:31:19;99290.72;;;16.35;100.00
4745;BME280;2386;42.138;24.746;2023-05-23T04:33:44;99287.16;;;16.35;100.00
4745;BME280;2386;42.138;24.746;2023-05-23T04:36:10;99298.09;;;16.40;100.00
4745;BME280;2386;42.138;24.746;2023-05-23T04:38:35;99304.94;;;16.53;100.00
4745;BME280;2386;42.138;24.746;2023-05-23T04:41:03;99298.63;;;16.57;100.00
4745;BME280;2386;42.138;24.746;2023-05-23T04:43:30;99310.97;;;16.65;100.00
4745;BME280;2386;42.138;24.746;2023-05-23T04:46:00;99305.19;;;16.71;100.00
4745;BME280;2386;42.138;24.746;2023-05-23T04:48:26;99308.72;;;16.77;100.00
4745;BME280;2386;42.138;24.746;2023-05-23T04:50:52;99305.41;;;16.85;100.00
4745;BME280;2386;42.138;24.746;2023-05-23T04:53:17;99298.28;;;16.89;100.00
4745;BME280;2386;42.138;24.746;2023-05-23T04:55:43;99306.47;;;16.99;100.00
4745;BME280;2386;42.138;24.746;2023-05-23T04:58:08;99308.34;;;17.04;100.00
4745;BME280;2386;42.138;24.746;2023-05-23T05:00:34;99309.38;;;17.18;100.00
4745;BME280;2386;42.138;24.746;2023-05-23T05:03:00;99300.03;;;17.19;100.00
4745;BME280;2386;42.138;24.746;2023-05-23T05:05:26;99310.13;;;17.29;100.00
4745;BME280;2386;42.138;24.746;2023-05-23T05:07:51;99307.91;;;17.36;100.00
4745;BME280;2386;42.138;24.746;2023-05-23T05:10:16;99316.88;;;17.47;100.00
4745;BME280;2386;42.138;24.746;2023-05-23T05:12:46;99302.59;;;17.55;100.00
4745;BME280;2386;42.138;24.746;2023-05-23T05:15:15;99304.47;;;17.59;100.00
4745;BME280;2386;42.138;24.746;2023-05-23T05:17:42;99313.25;;;17.61;99.59
4745;BME280;2386;42.138;24.746;2023-05-23T05:20:07;99313.19;;;17.71;99.65
4745;BME280;2386;42.138;24.746;2023-05-23T05:22:35;99314.84;;;17.72;99.91
4745;BME280;2386;42.138;24.746;2023-05-23T05:25:01;99319.75;;;17.76;99.45
4745;BME280;2386;42.138;24.746;2023-05-23T05:27:34;99315.63;;;17.78;100.00
4745;BME280;2386;42.138;24.746;2023-05-23T05:30:04;99309.50;;;17.86;100.00
4745;BME280;2386;42.138;24.746;2023-05-23T05:32:30;99311.97;;;17.88;100.00
4745;BME280;2386;42.138;24.746;2023-05-23T05:34:58;99318.50;;;17.92;100.00
4745;BME280;2386;42.138;24.746;2023-05-23T05:37:24;99332.22;;;17.92;99.93
4745;BME280;2386;42.138;24.746;2023-05-23T05:39:49;99324.00;;;17.92;99.80
4745;BME280;2386;42.138;24.746;2023-05-23T05:42:14;99324.22;;;18.00;100.00
4745;BME280;2386;42.138;24.746;2023-05-23T05:44:40;99327.19;;;18.04;100.00
4745;BME280;2386;42.138;24.746;2023-05-23T05:47:06;99335.09;;;18.11;99.75
4745;BME280;2386;42.138;24.746;2023-05-23T05:49:31;99326.59;;;18.12;99.65
4745;BME280;2386;42.138;24.746;2023-05-23T05:51:57;99337.47;;;18.22;99.83
4745;BME280;2386;42.138;24.746;2023-05-23T05:54:22;99331.41;;;18.25;98.12
4745;BME280;2386;42.138;24.746;2023-05-23T05:56:47;99335.19;;;18.34;97.86
4745;BME280;2386;42.138;24.746;2023-05-23T05:59:13;99320.88;;;18.37;95.97
4745;BME280;2386;42.138;24.746;2023-05-23T06:01:38;99330.16;;;18.42;94.47
4745;BME280;2386;42.138;24.746;2023-05-23T06:04:04;99324.06;;;18.50;93.61
4745;BME280;2386;42.138;24.746;2023-05-23T06:06:30;99327.78;;;18.59;91.63
4745;BME280;2386;42.138;24.746;2023-05-23T06:08:56;99331.84;;;18.66;89.94
4745;BME280;2386;42.138;24.746;2023-05-23T06:11:22;99330.56;;;18.83;89.59
4745;BME280;2386;42.138;24.746;2023-05-23T06:13:47;99331.22;;;18.98;94.19
4745;BME280;2386;42.138;24.746;2023-05-23T06:16:12;99339.50;;;19.17;94.62
4745;BME280;2386;42.138;24.746;2023-05-23T06:18:39;99330.22;;;19.32;92.34
4745;BME280;2386;42.138;24.746;2023-05-23T06:21:05;99324.06;;;19.40;90.12
4745;BME280;2386;42.138;24.746;2023-05-23T06:23:30;99318.72;;;19.49;90.66
4745;BME280;2386;42.138;24.746;2023-05-23T06:25:57;99317.03;;;19.53;86.59
4745;BME280;2386;42.138;24.746;2023-05-23T06:28:23;99322.03;;;19.69;94.71
4745;BME280;2386;42.138;24.746;2023-05-23T06:30:48;99327.38;;;19.80;90.79
4745;BME280;2386;42.138;24.746;2023-05-23T06:33:14;99325.06;;;19.87;87.34
4745;BME280;2386;42.138;24.746;2023-05-23T06:35:40;99322.06;;;20.02;90.70
4745;BME280;2386;42.138;24.746;2023-05-23T06:38:05;99325.16;;;20.14;85.82
4745;BME280;2386;42.138;24.746;2023-05-23T06:40:31;99327.03;;;20.32;89.22
4745;BME280;2386;42.138;24.746;2023-05-23T06:42:56;99326.50;;;20.49;85.58
4745;BME280;2386;42.138;24.746;2023-05-23T06:45:21;99329.28;;;20.63;85.20
4745;BME280;2386;42.138;24.746;2023-05-23T06:47:47;99326.72;;;20.80;83.11
4745;BME280;2386;42.138;24.746;2023-05-23T06:50:13;99325.63;;;20.95;83.23
4745;BME280;2386;42.138;24.746;2023-05-23T06:52:38;99316.53;;;21.08;79.78
4745;BME280;2386;42.138;24.746;2023-05-23T06:55:07;99314.16;;;21.15;78.91
4745;BME280;2386;42.138;24.746;2023-05-23T06:57:32;99314.28;;;21.10;77.17
4745;BME280;2386;42.138;24.746;2023-05-23T06:59:57;99306.41;;;21.04;77.89
4745;BME280;2386;42.138;24.746;2023-05-23T07:02:23;99313.06;;;21.03;77.00
4745;BME280;2386;42.138;24.746;2023-05-23T07:04:48;99313.47;;;20.96;78.04
4745;BME280;2386;42.138;24.746;2023-05-23T07:07:13;99306.09;;;20.91;78.33
4745;BME280;2386;42.138;24.746;2023-05-23T07:09:39;99302.94;;;20.84;76.60
4745;BME280;2386;42.138;24.746;2023-05-23T07:12:05;99311.94;;;20.90;80.79
4745;BME280;2386;42.138;24.746;2023-05-23T07:14:30;99304.47;;;20.90;78.80
4745;BME280;2386;42.138;24.746;2023-05-23T07:16:56;99309.97;;;20.90;79.86
4745;BME280;2386;42.138;24.746;2023-05-23T07:19:21;99309.06;;;20.81;77.94
4745;BME280;2386;42.138;24.746;2023-05-23T07:21:47;99306.09;;;20.91;78.84
4745;BME280;2386;42.138;24.746;2023-05-23T07:24:13;99296.91;;;20.96;77.80
4745;BME280;2386;42.138;24.746;2023-05-23T07:26:38;99302.84;;;21.03;77.59
4745;BME280;2386;42.138;24.746;2023-05-23T07:29:03;99306.91;;;21.06;76.56
4745;BME280;2386;42.138;24.746;2023-05-23T07:31:29;99299.56;;;21.15;76.84
4745;BME280;2386;42.138;24.746;2023-05-23T07:33:54;99289.53;;;21.19;76.14
4745;BME280;2386;42.138;24.746;2023-05-23T07:36:20;99295.69;;;21.29;75.82
4745;BME280;2386;42.138;24.746;2023-05-23T07:38:46;99293.63;;;21.35;74.93
4745;BME280;2386;42.138;24.746;2023-05-23T07:41:11;99300.06;;;21.44;74.89
4745;BME280;2386;42.138;24.746;2023-05-23T07:43:37;99286.81;;;21.55;76.81
4745;BME280;2386;42.138;24.746;2023-05-23T07:46:02;99288.28;;;21.52;71.83
4745;BME280;2386;42.138;24.746;2023-05-23T07:48:27;99294.84;;;21.65;72.22
4745;BME280;2386;42.138;24.746;2023-05-23T07:50:53;99287.09;;;21.67;72.19
4745;BME280;2386;42.138;24.746;2023-05-23T07:53:20;99292.69;;;21.76;72.17
4745;BME280;2386;42.138;24.746;2023-05-23T07:55:46;99289.97;;;21.84;71.70
4745;BME280;2386;42.138;24.746;2023-05-23T07:58:12;99284.97;;;21.86;69.49
4745;BME280;2386;42.138;24.746;2023-05-23T08:00:37;99287.28;;;21.93;69.89
4745;BME280;2386;42.138;24.746;2023-05-23T08:03:03;99275.25;;;21.89;66.50
4745;BME280;2386;42.138;24.746;2023-05-23T08:05:37;99286.94;;;22.08;64.40
4745;BME280;2386;42.138;24.746;2023-05-23T08:08:03;99276.53;;;22.05;62.63
4745;BME280;2386;42.138;24.746;2023-05-23T08:10:31;99281.16;;;22.18;62.05
4745;BME280;2386;42.138;24.746;2023-05-23T08:13:03;99284.13;;;22.30;58.29
4745;BME280;2386;42.138;24.746;2023-05-23T08:15:49;99288.72;;;22.35;56.37
4745;BME280;2386;42.138;24.746;2023-05-23T08:18:19;99283.53;;;22.42;60.00
4745;BME280;2386;42.138;24.746;2023-05-23T08:20:45;99267.91;;;22.38;61.64
4745;BME280;2386;42.138;24.746;2023-05-23T08:23:11;99272.66;;;22.46;60.06
4745;BME280;2386;42.138;24.746;2023-05-23T08:25:37;99292.59;;;22.65;60.68
4745;BME280;2386;42.138;24.746;2023-05-23T08:28:03;99270.47;;;22.65;60.50
4745;BME280;2386;42.138;24.746;2023-05-23T08:30:29;99271.47;;;22.69;59.55
4745;BME280;2386;42.138;24.746;2023-05-23T08:32:55;99280.91;;;22.68;57.12
4745;BME280;2386;42.138;24.746;2023-05-23T08:49:00;99276.97;;;23.09;55.77
4745;BME280;2386;42.138;24.746;2023-05-23T08:51:27;99275.84;;;23.10;53.77
4745;BME280;2386;42.138;24.746;2023-05-23T08:53:53;99275.53;;;23.20;54.32
4745;BME280;2386;42.138;24.746;2023-05-23T08:56:21;99264.63;;;23.23;53.53
4745;BME280;2386;42.138;24.746;2023-05-23T08:58:53;99272.47;;;23.30;51.96
4745;BME280;2386;42.138;24.746;2023-05-23T09:01:19;99262.53;;;23.29;53.91
4745;BME280;2386;42.138;24.746;2023-05-23T09:03:47;99267.94;;;23.43;50.65
4745;BME280;2386;42.138;24.746;2023-05-23T09:06:20;99252.13;;;23.35;49.73
4745;BME280;2386;42.138;24.746;2023-05-23T09:37:04;99269.53;;;24.13;45.88
4745;BME280;2386;42.138;24.746;2023-05-23T09:39:30;99257.28;;;24.22;47.40
4745;BME280;2386;42.138;24.746;2023-05-23T09:42:05;99270.47;;;24.43;46.89
4745;BME280;2386;42.138;24.746;2023-05-23T09:44:40;99279.38;;;24.57;46.98
4745;BME280;2386;42.138;24.746;2023-05-23T09:50:32;99259.31;;;24.89;44.46
4745;BME280;2386;42.138;24.746;2023-05-23T09:52:59;99259.25;;;25.07;44.19
4745;BME280;2386;42.138;24.746;2023-05-23T09:55:24;99265.84;;;25.23;43.93
4745;BME280;2386;42.138;24.746;2023-05-23T10:01:13;99253.44;;;25.41;43.80
4745;BME280;2386;42.138;24.746;2023-05-23T10:13:26;99247.28;;;25.98;42.99
4745;BME280;2386;42.138;24.746;2023-05-23T10:16:01;99245.19;;;26.07;44.30
4745;BME280;2386;42.138;24.746;2023-05-23T10:18:33;99249.50;;;26.17;42.75
4745;BME280;2386;42.138;24.746;2023-05-23T10:24:23;99229.72;;;26.18;44.42
4745;BME280;2386;42.138;24.746;2023-05-23T10:26:50;99246.41;;;26.31;44.91
4745;BME280;2386;42.138;24.746;2023-05-23T10:29:26;99247.91;;;26.28;43.13
4745;BME280;2386;42.138;24.746;2023-05-23T10:35:37;99238.81;;;26.40;40.27
4745;BME280;2386;42.138;24.746;2023-05-23T10:38:11;99236.75;;;26.49;41.18
4745;BME280;2386;42.138;24.746;2023-05-23T10:43:44;99237.69;;;26.77;42.51
4745;BME280;2386;42.138;24.746;2023-05-23T10:46:22;99225.16;;;26.83;41.75
4745;BME280;2386;42.138;24.746;2023-05-23T12:01:56;99259.28;;;36.27;29.13
4745;BME280;2386;42.138;24.746;2023-05-23T12:04:21;99260.00;;;36.93;30.74
4745;BME280;2386;42.138;24.746;2023-05-23T12:06:50;99260.53;;;37.63;29.98
4745;BME280;2386;42.138;24.746;2023-05-23T12:09:16;99260.72;;;37.83;28.20
4745;BME280;2386;42.138;24.746;2023-05-23T12:11:43;99254.78;;;35.06;30.71
4745;BME280;2386;42.138;24.746;2023-05-23T12:14:13;99243.38;;;35.67;30.49
4745;BME280;2386;42.138;24.746;2023-05-23T12:16:42;99255.69;;;36.12;29.38
4745;BME280;2386;42.138;24.746;2023-05-23T12:19:09;99251.59;;;36.27;28.58
4745;BME280;2386;42.138;24.746;2023-05-23T12:21:41;99251.63;;;36.16;27.48
4745;BME280;2386;42.138;24.746;2023-05-23T12:24:25;99242.72;;;37.97;28.01
4745;BME280;2386;42.138;24.746;2023-05-23T12:26:51;99244.28;;;37.33;27.07
4745;BME280;2386;42.138;24.746;2023-05-23T12:29:21;99239.22;;;37.52;27.55
4745;BME280;2386;42.138;24.746;2023-05-23T12:31:52;99226.13;;;36.86;26.60
4745;BME280;2386;42.138;24.746;2023-05-23T12:34:18;99229.66;;;36.97;26.56
4745;BME280;2386;42.138;24.746;2023-05-23T12:36:44;99229.38;;;37.63;27.25
4745;BME280;2386;42.138;24.746;2023-05-23T12:39:10;99232.34;;;39.18;25.49
4745;BME280;2386;42.138;24.746;2023-05-23T12:41:45;99229.34;;;40.08;24.33
4745;BME280;2386;42.138;24.746;2023-05-23T12:44:14;99227.38;;;40.89;24.08
4745;BME280;2386;42.138;24.746;2023-05-23T12:46:40;99212.06;;;40.99;22.87
4745;BME280;2386;42.138;24.746;2023-05-23T12:49:06;99217.00;;;41.57;22.96
4745;BME280;2386;42.138;24.746;2023-05-23T12:51:31;99210.81;;;41.00;22.68
4745;BME280;2386;42.138;24.746;2023-05-23T12:53:57;99207.28;;;41.42;22.30
4745;BME280;2386;42.138;24.746;2023-05-23T12:56:24;99194.47;;;41.62;22.15
4745;BME280;2386;42.138;24.746;2023-05-23T12:58:50;99185.16;;;41.75;22.68
4745;BME280;2386;42.138;24.746;2023-05-23T13:01:18;99189.44;;;41.25;22.24
4745;BME280;2386;42.138;24.746;2023-05-23T13:03:44;99202.09;;;41.65;22.42
4745;BME280;2386;42.138;24.746;2023-05-23T13:06:09;99180.19;;;41.21;21.61
4745;BME280;2386;42.138;24.746;2023-05-23T13:08:35;99203.13;;;41.59;21.83
4745;BME280;2386;42.138;24.746;2023-05-23T13:11:03;99195.59;;;42.32;21.48
4745;BME280;2386;42.138;24.746;2023-05-23T13:13:29;99216.00;;;42.56;20.50
4745;BME280;2386;42.138;24.746;2023-05-23T13:15:57;99206.88;;;42.10;21.50
4745;BME280;2386;42.138;24.746;2023-05-23T13:18:22;99192.75;;;42.07;20.31
4745;BME280;2386;42.138;24.746;2023-05-23T13:20:47;99209.63;;;42.26;21.33
4745;BME280;2386;42.138;24.746;2023-05-23T13:23:13;99204.50;;;42.47;21.02
4745;BME280;2386;42.138;24.746;2023-05-23T13:25:39;99196.72;;;42.60;20.67
4745;BME280;2386;42.138;24.746;2023-05-23T13:28:04;99201.69;;;42.94;20.50
4745;BME280;2386;42.138;24.746;2023-05-23T13:30:30;99190.00;;;42.54;20.42
4745;BME280;2386;42.138;24.746;2023-05-23T13:32:56;99186.44;;;43.10;20.49
4745;BME280;2386;42.138;24.746;2023-05-23T13:35:21;99196.78;;;43.29;19.41
4745;BME280;2386;42.138;24.746;2023-05-23T13:37:47;99186.09;;;43.64;20.06
4745;BME280;2386;42.138;24.746;2023-05-23T13:40:17;99183.16;;;43.77;19.57
4745;BME280;2386;42.138;24.746;2023-05-23T13:42:44;99196.69;;;43.85;19.21
4745;BME280;2386;42.138;24.746;2023-05-23T13:45:10;99181.56;;;43.76;19.30
4745;BME280;2386;42.138;24.746;2023-05-23T13:47:36;99185.09;;;43.80;19.83
4745;BME280;2386;42.138;24.746;2023-05-23T13:50:03;99179.31;;;44.33;19.20
4745;BME280;2386;42.138;24.746;2023-05-23T13:52:28;99177.03;;;44.68;18.53
4745;BME280;2386;42.138;24.746;2023-05-23T13:54:54;99182.28;;;44.69;18.57
4745;BME280;2386;42.138;24.746;2023-05-23T13:57:20;99175.72;;;44.60;18.58
4745;BME280;2386;42.138;24.746;2023-05-23T13:59:45;99187.72;;;44.85;17.93
4745;BME280;2386;42.138;24.746;2023-05-23T14:02:11;99174.38;;;44.33;18.35
4745;BME280;2386;42.138;24.746;2023-05-23T14:04:47;99188.09;;;44.07;18.53
4745;BME280;2386;42.138;24.746;2023-05-23T14:07:12;99190.13;;;44.38;18.53
4745;BME280;2386;42.138;24.746;2023-05-23T14:09:38;99187.84;;;44.54;17.61
4745;BME280;2386;42.138;24.746;2023-05-23T14:12:04;99183.38;;;43.91;18.74
4745;BME280;2386;42.138;24.746;2023-05-23T14:14:29;99180.50;;;44.13;18.39
4745;BME280;2386;42.138;24.746;2023-05-23T14:16:56;99183.53;;;44.19;18.35
4745;BME280;2386;42.138;24.746;2023-05-23T14:19:21;99186.34;;;43.79;19.09
4745;BME280;2386;42.138;24.746;2023-05-23T14:21:47;99200.03;;;42.20;20.36
4745;BME280;2386;42.138;24.746;2023-05-23T14:24:12;99189.34;;;40.15;22.79
4745;BME280;2386;42.138;24.746;2023-05-23T14:26:37;99187.56;;;38.05;24.31
4745;BME280;2386;42.138;24.746;2023-05-23T14:29:03;99213.69;;;37.21;24.64
4745;BME280;2386;42.138;24.746;2023-05-23T14:31:28;99210.69;;;35.69;26.67
4745;BME280;2386;42.138;24.746;2023-05-23T14:33:54;99202.03;;;34.46;28.61
4745;BME280;2386;42.138;24.746;2023-05-23T14:36:20;99211.00;;;33.58;30.08
4745;BME280;2386;42.138;24.746;2023-05-23T14:38:45;99207.94;;;32.57;31.74
4745;BME280;2386;42.138;24.746;2023-05-23T14:41:12;99201.25;;;31.91;33.28
4745;BME280;2386;42.138;24.746;2023-05-23T14:43:37;99209.03;;;31.71;33.89
4745;BME280;2386;42.138;24.746;2023-05-23T14:46:05;99200.47;;;31.94;34.21
4745;BME280;2386;42.138;24.746;2023-05-23T14:48:30;99189.09;;;32.20;33.30
4745;BME280;2386;42.138;24.746;2023-05-23T14:50:56;99181.31;;;32.03;33.76
4745;BME280;2386;42.138;24.746;2023-05-23T14:53:28;99195.00;;;31.71;34.51
4745;BME280;2386;42.138;24.746;2023-05-23T14:55:54;99179.38;;;31.70;34.50
4745;BME280;2386;42.138;24.746;2023-05-23T14:58:20;99188.34;;;31.53;35.44
4745;BME280;2386;42.138;24.746;2023-05-23T15:00:47;99175.50;;;31.18;36.32
4745;BME280;2386;42.138;24.746;2023-05-23T15:03:13;99171.59;;;30.73;36.10
4745;BME280;2386;42.138;24.746;2023-05-23T15:05:39;99163.63;;;30.26;37.77
4745;BME280;2386;42.138;24.746;2023-05-23T15:08:04;99157.06;;;29.76;38.01
4745;BME280;2386;42.138;24.746;2023-05-23T15:10:30;99152.28;;;29.19;39.73
4745;BME280;2386;42.138;24.746;2023-05-23T15:12:55;99145.66;;;28.89;40.26
4745;BME280;2386;42.138;24.746;2023-05-23T15:15:21;99145.75;;;28.76;41.46
4745;BME280;2386;42.138;24.746;2023-05-23T15:17:49;99149.94;;;28.35;43.14
4745;BME280;2386;42.138;24.746;2023-05-23T15:20:15;99156.00;;;28.22;43.94
4745;BME280;2386;42.138;24.746;2023-05-23T15:22:41;99152.06;;;27.95;44.61
4745;BME280;2386;42.138;24.746;2023-05-23T15:25:07;99164.25;;;27.74;45.44
4745;BME280;2386;42.138;24.746;2023-05-23T15:27:33;99165.13;;;27.63;44.31
4745;BME280;2386;42.138;24.746;2023-05-23T15:29:58;99165.34;;;27.58;43.38
4745;BME280;2386;42.138;24.746;2023-05-23T15:32:24;99170.72;;;27.50;44.26
4745;BME280;2386;42.138;24.746;2023-05-23T15:34:49;99165.66;;;27.40;44.10